sensor_id;sensor_type;location;lat;lon;timestamp;temperature;humidity
32187;DHT22;18686;53.084;8.872;2023-06-05T00:00:42;10.50;99.90
32187;DHT22;18686;53.084;8.872;2023-06-05T00:03:10;10.50;99.90
32187;DHT22;18686;53.084;8.872;2023-06-05T00:05:38;10.50;99.90
32187;DHT22;18686;53.084;8.872;2023-06-05T00:08:07;10.40;99.90
32187;DHT22;18686;53.084;8.872;2023-06-05T00:10:35;10.40;99.90
32187;DHT22;18686;53.084;8.872;2023-06-05T00:13:03;10.40;99.90
32187;DHT22;18686;53.084;8.872;2023-06-05T00:15:33;10.40;99.90
32187;DHT22;18686;53.084;8.872;2023-06-05T00:18:03;10.40;99.90
32187;DHT22;18686;53.084;8.872;2023-06-05T00:20:31;10.40;99.90
32187;DHT22;18686;53.084;8.872;2023-06-05T00:22:59;10.40;99.90
32187;DHT22;18686;53.084;8.872;2023-06-05T00:25:28;10.30;99.90
32187;DHT22;18686;53.084;8.872;2023-06-05T00:27:56;10.40;99.90
32187;DHT22;18686;53.084;8.872;2023-06-05T00:30:24;10.30;99.90
32187;DHT22;18686;53.084;8.872;2023-06-05T00:32:55;10.30;99.90
32187;DHT22;18686;53.084;8.872;2023-06-05T00:35:23;10.30;99.90
32187;DHT22;18686;53.084;8.872;2023-06-05T00:37:52;10.30;99.90
32187;DHT22;18686;53.084;8.872;2023-06-05T00:40:20;10.20;99.90
32187;DHT22;18686;53.084;8.872;2023-06-05T00:42:48;10.20;99.90
32187;DHT22;18686;53.084;8.872;2023-06-05T00:45:17;10.20;99.90
32187;DHT22;18686;53.084;8.872;2023-06-05T00:47:45;10.20;99.90
32187;DHT22;18686;53.084;8.872;2023-06-05T00:50:15;10.20;99.90
32187;DHT22;18686;53.084;8.872;2023-06-05T00:52:48;10.20;99.90
32187;DHT22;18686;53.084;8.872;2023-06-05T00:55:19;10.20;99.90
32187;DHT22;18686;53.084;8.872;2023-06-05T00:57:48;10.20;99.90
32187;DHT22;18686;53.084;8.872;2023-06-05T01:00:16;10.10;99.90
32187;DHT22;18686;53.084;8.872;2023-06-05T01:02:45;10.10;99.90
32187;DHT22;18686;53.084;8.872;2023-06-05T01:05:15;10.10;99.90
32187;DHT22;18686;53.084;8.872;2023-06-05T01:07:44;10.10;99.90
32187;DHT22;18686;53.084;8.872;2023-06-05T01:10:14;10.10;99.90
32187;DHT22;18686;53.084;8.872;2023-06-05T01:12:50;10.10;99.90
32187;DHT22;18686;53.084;8.872;2023-06-05T01:15:23;10.00;99.90
32187;DHT22;18686;53.084;8.872;2023-06-05T01:17:56;10.00;99.90
32187;DHT22;18686;53.084;8.872;2023-06-05T01:20:33;10.00;99.90
32187;DHT22;18686;53.084;8.872;2023-06-05T01:23:03;10.00;99.90
32187;DHT22;18686;53.084;8.872;2023-06-05T01:25:32;9.90;99.90
32187;DHT22;18686;53.084;8.872;2023-06-05T01:28:08;9.90;99.90
32187;DHT22;18686;53.084;8.872;2023-06-05T01:30:42;9.90;99.90
32187;DHT22;18686;53.084;8.872;2023-06-05T01:33:17;9.90;99.90
32187;DHT22;18686;53.084;8.872;2023-06-05T01:35:49;9.90;99.90
32187;DHT22;18686;53.084;8.872;2023-06-05T01:38:20;9.90;99.90
32187;DHT22;18686;53.084;8.872;2023-06-05T01:40:50;9.80;99.90
32187;DHT22;18686;53.084;8.872;2023-06-05T01:43:19;9.80;99.90
32187;DHT22;18686;53.084;8.872;2023-06-05T01:45:48;9.80;99.90
32187;DHT22;18686;53.084;8.872;2023-06-05T01:48:17;9.70;99.90
32187;DHT22;18686;53.084;8.872;2023-06-05T01:50:45;9.70;99.90
32187;DHT22;18686;53.084;8.872;2023-06-05T01:53:15;9.70;99.90
32187;DHT22;18686;53.084;8.872;2023-06-05T01:55:45;9.70;99.90
32187;DHT22;18686;53.084;8.872;2023-06-05T01:58:13;9.70;99.90
32187;DHT22;18686;53.084;8.872;2023-06-05T02:00:42;9.70;99.90
32187;DHT22;18686;53.084;8.872;2023-06-05T02:03:14;9.70;99.90
32187;DHT22;18686;53.084;8.872;2023-06-05T02:05:43;9.70;99.90
32187;DHT22;18686;53.084;8.872;2023-06-05T02:08:11;9.60;99.90
32187;DHT22;18686;53.084;8.872;2023-06-05T02:10:40;9.60;99.90
32187;DHT22;18686;53.084;8.872;2023-06-05T02:13:12;9.60;99.90
32187;DHT22;18686;53.084;8.872;2023-06-05T02:15:42;9.60;99.90
32187;DHT22;18686;53.084;8.872;2023-06-05T02:18:12;9.60;99.90
32187;DHT22;18686;53.084;8.872;2023-06-05T02:20:42;9.60;99.90
32187;DHT22;18686;53.084;8.872;2023-06-05T02:23:10;9.60;99.90
32187;DHT22;18686;53.084;8.872;2023-06-05T02:25:39;9.50;99.90
32187;DHT22;18686;53.084;8.872;2023-06-05T02:28:12;9.50;99.90
32187;DHT22;18686;53.084;8.872;2023-06-05T02:30:40;9.50;99.90
32187;DHT22;18686;53.084;8.872;2023-06-05T02:33:12;9.50;99.90
32187;DHT22;18686;53.084;8.872;2023-06-05T02:35:42;9.50;99.90
32187;DHT22;18686;53.084;8.872;2023-06-05T02:38:10;9.40;99.90
32187;DHT22;18686;53.084;8.872;2023-06-05T02:40:39;9.40;99.90
32187;DHT22;18686;53.084;8.872;2023-06-05T02:43:07;9.40;99.90
32187;DHT22;18686;53.084;8.872;2023-06-05T02:45:39;9.40;99.90
32187;DHT22;18686;53.084;8.872;2023-06-05T02:48:08;9.40;99.90
32187;DHT22;18686;53.084;8.872;2023-06-05T02:50:36;9.40;99.90
32187;DHT22;18686;53.084;8.872;2023-06-05T02:53:07;9.40;99.90
32187;DHT22;18686;53.084;8.872;2023-06-05T02:55:38;9.30;99.90
32187;DHT22;18686;53.084;8.872;2023-06-05T02:58:11;9.30;99.90
32187;DHT22;18686;53.084;8.872;2023-06-05T03:00:47;9.30;99.90
32187;DHT22;18686;53.084;8.872;2023-06-05T03:03:18;9.30;99.90
32187;DHT22;18686;53.084;8.872;2023-06-05T03:05:49;9.30;99.90
32187;DHT22;18686;53.084;8.872;2023-06-05T03:08:17;9.30;99.90
32187;DHT22;18686;53.084;8.872;2023-06-05T03:10:46;9.30;99.90
32187;DHT22;18686;53.084;8.872;2023-06-05T03:13:15;9.30;99.90
32187;DHT22;18686;53.084;8.872;2023-06-05T03:15:43;9.30;99.90
32187;DHT22;18686;53.084;8.872;2023-06-05T03:18:18;9.30;99.90
32187;DHT22;18686;53.084;8.872;2023-06-05T03:20:47;9.30;99.90
32187;DHT22;18686;53.084;8.872;2023-06-05T03:23:17;9.30;99.90
32187;DHT22;18686;53.084;8.872;2023-06-05T03:25:45;9.30;99.90
32187;DHT22;18686;53.084;8.872;2023-06-05T03:28:14;9.30;99.90
32187;DHT22;18686;53.084;8.872;2023-06-05T03:30:42;9.30;99.90
32187;DHT22;18686;53.084;8.872;2023-06-05T03:33:11;9.30;99.90
32187;DHT22;18686;53.084;8.872;2023-06-05T03:35:42;9.40;99.90
32187;DHT22;18686;53.084;8.872;2023-06-05T03:38:13;9.40;99.90
32187;DHT22;18686;53.084;8.872;2023-06-05T03:40:42;9.40;99.90
32187;DHT22;18686;53.084;8.872;2023-06-05T03:43:12;9.40;99.90
32187;DHT22;18686;53.084;8.872;2023-06-05T03:45:42;9.40;99.90
32187;DHT22;18686;53.084;8.872;2023-06-05T03:48:11;9.40;99.90
32187;DHT22;18686;53.084;8.872;2023-06-05T03:50:43;9.40;99.90
32187;DHT22;18686;53.084;8.872;2023-06-05T03:53:11;9.40;99.90
32187;DHT22;18686;53.084;8.872;2023-06-05T03:55:41;9.50;99.90
32187;DHT22;18686;53.084;8.872;2023-06-05T03:58:20;9.50;99.90
32187;DHT22;18686;53.084;8.872;2023-06-05T04:00:51;9.50;99.90
32187;DHT22;18686;53.084;8.872;2023-06-05T04:03:21;9.50;99.90
32187;DHT22;18686;53.084;8.872;2023-06-05T04:05:54;9.50;99.90
32187;DHT22;18686;53.084;8.872;2023-06-05T04:08:23;9.60;99.90
32187;DHT22;18686;53.084;8.872;2023-06-05T04:10:52;9.60;99.90
32187;DHT22;18686;53.084;8.872;2023-06-05T04:13:21;9.60;99.90
32187;DHT22;18686;53.084;8.872;2023-06-05T04:15:50;9.70;99.90
32187;DHT22;18686;53.084;8.872;2023-06-05T04:18:19;9.70;99.90
32187;DHT22;18686;53.084;8.872;2023-06-05T04:20:51;9.70;99.90
32187;DHT22;18686;53.084;8.872;2023-06-05T04:23:21;9.80;99.90
32187;DHT22;18686;53.084;8.872;2023-06-05T04:25:50;9.80;99.90
32187;DHT22;18686;53.084;8.872;2023-06-05T04:28:18;9.90;99.90
32187;DHT22;18686;53.084;8.872;2023-06-05T04:30:46;9.90;99.90
32187;DHT22;18686;53.084;8.872;2023-06-05T04:33:18;10.00;99.90
32187;DHT22;18686;53.084;8.872;2023-06-05T04:35:46;10.10;99.90
32187;DHT22;18686;53.084;8.872;2023-06-05T04:38:15;10.10;99.90
32187;DHT22;18686;53.084;8.872;2023-06-05T04:40:50;10.20;99.90
32187;DHT22;18686;53.084;8.872;2023-06-05T04:43:19;10.20;99.90
32187;DHT22;18686;53.084;8.872;2023-06-05T04:45:48;10.30;99.90
32187;DHT22;18686;53.084;8.872;2023-06-05T04:48:17;10.30;99.90
32187;DHT22;18686;53.084;8.872;2023-06-05T04:50:45;10.40;99.90
32187;DHT22;18686;53.084;8.872;2023-06-05T04:53:15;10.50;99.90
32187;DHT22;18686;53.084;8.872;2023-06-05T04:55:44;10.60;99.90
32187;DHT22;18686;53.084;8.872;2023-06-05T04:58:17;10.60;99.90
32187;DHT22;18686;53.084;8.872;2023-06-05T05:00:47;10.70;99.90
32187;DHT22;18686;53.084;8.872;2023-06-05T05:03:18;10.80;99.90
32187;DHT22;18686;53.084;8.872;2023-06-05T05:05:47;10.90;99.90
32187;DHT22;18686;53.084;8.872;2023-06-05T05:08:16;11.00;99.90
32187;DHT22;18686;53.084;8.872;2023-06-05T05:10:45;11.10;99.90
32187;DHT22;18686;53.084;8.872;2023-06-05T05:13:13;11.20;99.90
32187;DHT22;18686;53.084;8.872;2023-06-05T05:15:43;11.30;99.90
32187;DHT22;18686;53.084;8.872;2023-06-05T05:18:12;11.40;99.90
32187;DHT22;18686;53.084;8.872;2023-06-05T05:20:40;11.50;99.90
32187;DHT22;18686;53.084;8.872;2023-06-05T05:23:09;11.60;99.90
32187;DHT22;18686;53.084;8.872;2023-06-05T05:25:38;11.70;99.90
32187;DHT22;18686;53.084;8.872;2023-06-05T05:28:07;11.80;99.90
32187;DHT22;18686;53.084;8.872;2023-06-05T05:30:37;11.90;99.90
32187;DHT22;18686;53.084;8.872;2023-06-05T05:33:07;12.10;99.90
32187;DHT22;18686;53.084;8.872;2023-06-05T05:35:35;12.20;99.90
32187;DHT22;18686;53.084;8.872;2023-06-05T05:38:04;12.40;99.90
32187;DHT22;18686;53.084;8.872;2023-06-05T05:40:33;12.50;99.90
32187;DHT22;18686;53.084;8.872;2023-06-05T05:43:01;12.70;99.90
32187;DHT22;18686;53.084;8.872;2023-06-05T05:45:29;12.80;99.90
32187;DHT22;18686;53.084;8.872;2023-06-05T05:47:58;12.90;99.90
32187;DHT22;18686;53.084;8.872;2023-06-05T05:50:27;13.10;99.90
32187;DHT22;18686;53.084;8.872;2023-06-05T05:52:56;13.30;99.90
32187;DHT22;18686;53.084;8.872;2023-06-05T05:55:25;13.50;99.90
32187;DHT22;18686;53.084;8.872;2023-06-05T05:57:54;13.60;99.90
32187;DHT22;18686;53.084;8.872;2023-06-05T06:00:22;13.80;99.90
32187;DHT22;18686;53.084;8.872;2023-06-05T06:02:51;13.90;99.90
32187;DHT22;18686;53.084;8.872;2023-06-05T06:05:19;14.10;99.90
32187;DHT22;18686;53.084;8.872;2023-06-05T06:07:49;14.20;99.90
32187;DHT22;18686;53.084;8.872;2023-06-05T06:10:18;14.40;99.90
32187;DHT22;18686;53.084;8.872;2023-06-05T06:12:46;14.60;99.90
32187;DHT22;18686;53.084;8.872;2023-06-05T06:15:15;14.80;99.90
32187;DHT22;18686;53.084;8.872;2023-06-05T06:17:44;14.90;99.90
32187;DHT22;18686;53.084;8.872;2023-06-05T06:20:12;15.10;99.90
32187;DHT22;18686;53.084;8.872;2023-06-05T06:22:43;15.30;99.90
32187;DHT22;18686;53.084;8.872;2023-06-05T06:25:12;15.40;99.90
32187;DHT22;18686;53.084;8.872;2023-06-05T06:27:44;15.50;99.90
32187;DHT22;18686;53.084;8.872;2023-06-05T06:30:15;15.70;99.90
32187;DHT22;18686;53.084;8.872;2023-06-05T06:32:43;15.80;99.90
32187;DHT22;18686;53.084;8.872;2023-06-05T06:35:12;16.00;99.90
32187;DHT22;18686;53.084;8.872;2023-06-05T06:37:41;16.20;99.90
32187;DHT22;18686;53.084;8.872;2023-06-05T06:40:09;16.40;99.90
32187;DHT22;18686;53.084;8.872;2023-06-05T06:42:39;16.60;99.90
32187;DHT22;18686;53.084;8.872;2023-06-05T06:45:20;16.70;99.90
32187;DHT22;18686;53.084;8.872;2023-06-05T06:47:48;17.00;99.90
32187;DHT22;18686;53.084;8.872;2023-06-05T06:50:33;17.20;99.90
32187;DHT22;18686;53.084;8.872;2023-06-05T06:53:02;17.30;99.90
32187;DHT22;18686;53.084;8.872;2023-06-05T06:55:30;17.50;99.70
32187;DHT22;18686;53.084;8.872;2023-06-05T06:58:01;17.80;99.40
32187;DHT22;18686;53.084;8.872;2023-06-05T07:00:29;18.00;98.30
32187;DHT22;18686;53.084;8.872;2023-06-05T07:02:58;18.30;98.10
32187;DHT22;18686;53.084;8.872;2023-06-05T07:05:26;18.60;97.20
32187;DHT22;18686;53.084;8.872;2023-06-05T07:07:54;18.80;95.70
32187;DHT22;18686;53.084;8.872;2023-06-05T07:10:28;19.10;94.90
32187;DHT22;18686;53.084;8.872;2023-06-05T07:12:56;19.30;94.00
32187;DHT22;18686;53.084;8.872;2023-06-05T07:15:26;19.60;93.20
32187;DHT22;18686;53.084;8.872;2023-06-05T07:17:54;19.80;91.60
32187;DHT22;18686;53.084;8.872;2023-06-05T07:20:22;20.00;90.50
32187;DHT22;18686;53.084;8.872;2023-06-05T07:22:50;20.30;89.20
32187;DHT22;18686;53.084;8.872;2023-06-05T07:25:19;20.50;87.70
32187;DHT22;18686;53.084;8.872;2023-06-05T07:27:49;20.70;85.00
32187;DHT22;18686;53.084;8.872;2023-06-05T07:30:18;20.90;82.70
32187;DHT22;18686;53.084;8.872;2023-06-05T07:32:48;21.10;80.00
32187;DHT22;18686;53.084;8.872;2023-06-05T07:35:16;21.30;78.10
32187;DHT22;18686;53.084;8.872;2023-06-05T07:37:44;21.50;76.50
32187;DHT22;18686;53.084;8.872;2023-06-05T07:40:13;21.80;75.50
32187;DHT22;18686;53.084;8.872;2023-06-05T07:42:41;22.10;73.60
32187;DHT22;18686;53.084;8.872;2023-06-05T07:45:10;22.40;70.10
32187;DHT22;18686;53.084;8.872;2023-06-05T07:47:38;22.70;68.10
32187;DHT22;18686;53.084;8.872;2023-06-05T07:50:09;22.90;65.20
32187;DHT22;18686;53.084;8.872;2023-06-05T07:52:37;23.00;63.80
32187;DHT22;18686;53.084;8.872;2023-06-05T07:55:06;23.20;63.10
32187;DHT22;18686;53.084;8.872;2023-06-05T07:57:34;23.30;61.20
32187;DHT22;18686;53.084;8.872;2023-06-05T08:00:04;23.40;60.90
32187;DHT22;18686;53.084;8.872;2023-06-05T08:02:40;23.60;60.10
32187;DHT22;18686;53.084;8.872;2023-06-05T08:05:12;23.90;59.10
32187;DHT22;18686;53.084;8.872;2023-06-05T08:07:41;24.10;58.00
32187;DHT22;18686;53.084;8.872;2023-06-05T08:10:10;24.10;57.20
32187;DHT22;18686;53.084;8.872;2023-06-05T08:12:38;24.30;57.00
32187;DHT22;18686;53.084;8.872;2023-06-05T08:15:07;24.60;55.70
32187;DHT22;18686;53.084;8.872;2023-06-05T08:17:35;24.80;54.90
32187;DHT22;18686;53.084;8.872;2023-06-05T08:20:04;25.00;53.70
32187;DHT22;18686;53.084;8.872;2023-06-05T08:22:36;25.10;52.70
32187;DHT22;18686;53.084;8.872;2023-06-05T08:25:07;25.30;51.90
32187;DHT22;18686;53.084;8.872;2023-06-05T08:27:35;25.60;51.20
32187;DHT22;18686;53.084;8.872;2023-06-05T08:30:04;25.80;50.70
32187;DHT22;18686;53.084;8.872;2023-06-05T08:32:32;26.00;49.30
32187;DHT22;18686;53.084;8.872;2023-06-05T08:35:01;26.20;48.80
32187;DHT22;18686;53.084;8.872;2023-06-05T08:37:29;26.40;48.50
32187;DHT22;18686;53.084;8.872;2023-06-05T08:39:59;26.70;47.90
32187;DHT22;18686;53.084;8.872;2023-06-05T08:42:33;27.00;46.80
32187;DHT22;18686;53.084;8.872;2023-06-05T08:45:01;27.30;45.70
32187;DHT22;18686;53.084;8.872;2023-06-05T08:47:30;27.60;44.90
32187;DHT22;18686;53.084;8.872;2023-06-05T08:50:02;27.80;44.40
32187;DHT22;18686;53.084;8.872;2023-06-05T08:52:33;27.90;44.00
32187;DHT22;18686;53.084;8.872;2023-06-05T08:55:05;28.00;44.00
32187;DHT22;18686;53.084;8.872;2023-06-05T08:57:34;28.00;43.50
32187;DHT22;18686;53.084;8.872;2023-06-05T09:00:05;28.20;43.40
32187;DHT22;18686;53.084;8.872;2023-06-05T09:02:38;28.60;42.90
32187;DHT22;18686;53.084;8.872;2023-06-05T09:05:11;29.00;42.60
32187;DHT22;18686;53.084;8.872;2023-06-05T09:07:39;29.20;41.90
32187;DHT22;18686;53.084;8.872;2023-06-05T09:10:23;29.30;41.10
32187;DHT22;18686;53.084;8.872;2023-06-05T09:12:56;29.50;41.10
32187;DHT22;18686;53.084;8.872;2023-06-05T09:15:26;29.50;41.00
32187;DHT22;18686;53.084;8.872;2023-06-05T09:18:03;29.50;39.90
32187;DHT22;18686;53.084;8.872;2023-06-05T09:20:32;29.70;40.00
32187;DHT22;18686;53.084;8.872;2023-06-05T09:23:02;29.60;39.10
32187;DHT22;18686;53.084;8.872;2023-06-05T09:25:46;29.70;40.20
32187;DHT22;18686;53.084;8.872;2023-06-05T09:28:18;30.00;38.80
32187;DHT22;18686;53.084;8.872;2023-06-05T09:30:59;30.20;37.70
32187;DHT22;18686;53.084;8.872;2023-06-05T09:33:29;30.50;36.80
32187;DHT22;18686;53.084;8.872;2023-06-05T09:36:05;30.80;37.50
32187;DHT22;18686;53.084;8.872;2023-06-05T09:38:34;31.00;37.60
32187;DHT22;18686;53.084;8.872;2023-06-05T09:41:08;31.00;37.40
32187;DHT22;18686;53.084;8.872;2023-06-05T09:43:38;31.10;37.30
32187;DHT22;18686;53.084;8.872;2023-06-05T09:46:07;31.20;36.70
32187;DHT22;18686;53.084;8.872;2023-06-05T09:48:37;31.40;37.20
32187;DHT22;18686;53.084;8.872;2023-06-05T09:51:09;32.10;36.70
32187;DHT22;18686;53.084;8.872;2023-06-05T09:53:42;32.60;36.00
32187;DHT22;18686;53.084;8.872;2023-06-05T09:56:13;33.20;35.20
32187;DHT22;18686;53.084;8.872;2023-06-05T09:58:46;33.60;34.40
32187;DHT22;18686;53.084;8.872;2023-06-05T10:01:17;34.10;34.60
32187;DHT22;18686;53.084;8.872;2023-06-05T10:03:50;34.50;33.60
32187;DHT22;18686;53.084;8.872;2023-06-05T10:06:19;35.00;33.10
32187;DHT22;18686;53.084;8.872;2023-06-05T10:08:51;35.70;31.80
32187;DHT22;18686;53.084;8.872;2023-06-05T10:11:24;36.50;31.50
32187;DHT22;18686;53.084;8.872;2023-06-05T10:13:54;36.80;31.00
32187;DHT22;18686;53.084;8.872;2023-06-05T10:16:22;37.10;31.00
32187;DHT22;18686;53.084;8.872;2023-06-05T10:18:54;37.80;30.30
32187;DHT22;18686;53.084;8.872;2023-06-05T10:21:24;38.30;29.90
32187;DHT22;18686;53.084;8.872;2023-06-05T10:23:57;38.90;30.10
32187;DHT22;18686;53.084;8.872;2023-06-05T10:26:41;39.80;29.00
32187;DHT22;18686;53.084;8.872;2023-06-05T10:29:26;39.90;28.30
32187;DHT22;18686;53.084;8.872;2023-06-05T10:31:59;40.40;28.00
32187;DHT22;18686;53.084;8.872;2023-06-05T10:34:40;41.00;28.30
32187;DHT22;18686;53.084;8.872;2023-06-05T10:37:41;41.90;27.10
32187;DHT22;18686;53.084;8.872;2023-06-05T10:40:15;42.10;27.20
32187;DHT22;18686;53.084;8.872;2023-06-05T10:42:46;43.50;26.40
32187;DHT22;18686;53.084;8.872;2023-06-05T10:45:29;43.80;25.80
32187;DHT22;18686;53.084;8.872;2023-06-05T10:47:58;44.40;25.80
32187;DHT22;18686;53.084;8.872;2023-06-05T10:50:28;44.60;25.90
32187;DHT22;18686;53.084;8.872;2023-06-05T10:52:58;45.20;25.70
32187;DHT22;18686;53.084;8.872;2023-06-05T10:55:41;46.40;25.30
32187;DHT22;18686;53.084;8.872;2023-06-05T10:58:12;46.40;24.80
32187;DHT22;18686;53.084;8.872;2023-06-05T11:01:16;47.20;24.60
32187;DHT22;18686;53.084;8.872;2023-06-05T11:03:58;47.90;24.60
32187;DHT22;18686;53.084;8.872;2023-06-05T11:06:27;48.20;24.10
32187;DHT22;18686;53.084;8.872;2023-06-05T11:09:12;48.70;24.10
32187;DHT22;18686;53.084;8.872;2023-06-05T11:11:58;49.80;23.40
32187;DHT22;18686;53.084;8.872;2023-06-05T11:14:44;49.60;23.00
32187;DHT22;18686;53.084;8.872;2023-06-05T11:17:29;50.20;23.30
32187;DHT22;18686;53.084;8.872;2023-06-05T11:19:58;50.40;22.90
32187;DHT22;18686;53.084;8.872;2023-06-05T11:22:27;49.40;22.80
32187;DHT22;18686;53.084;8.872;2023-06-05T11:25:24;50.00;23.20
32187;DHT22;18686;53.084;8.872;2023-06-05T11:27:55;50.40;23.30
32187;DHT22;18686;53.084;8.872;2023-06-05T11:30:28;51.50;22.40
32187;DHT22;18686;53.084;8.872;2023-06-05T11:33:15;51.30;22.20
32187;DHT22;18686;53.084;8.872;2023-06-05T11:35:44;52.60;22.10
32187;DHT22;18686;53.084;8.872;2023-06-05T11:38:15;52.80;21.80
32187;DHT22;18686;53.084;8.872;2023-06-05T11:40:50;53.40;22.10
32187;DHT22;18686;53.084;8.872;2023-06-05T11:43:19;53.70;21.80
32187;DHT22;18686;53.084;8.872;2023-06-05T11:45:54;54.20;21.40
32187;DHT22;18686;53.084;8.872;2023-06-05T11:48:23;54.40;21.40
32187;DHT22;18686;53.084;8.872;2023-06-05T11:50:54;54.80;21.70
32187;DHT22;18686;53.084;8.872;2023-06-05T11:53:24;54.90;21.10
32187;DHT22;18686;53.084;8.872;2023-06-05T11:55:52;54.70;20.90
32187;DHT22;18686;53.084;8.872;2023-06-05T11:58:36;55.00;21.00
32187;DHT22;18686;53.084;8.872;2023-06-05T12:01:08;54.00;21.20
32187;DHT22;18686;53.084;8.872;2023-06-05T12:03:41;54.00;21.30
32187;DHT22;18686;53.084;8.872;2023-06-05T12:06:10;54.30;21.50
32187;DHT22;18686;53.084;8.872;2023-06-05T12:08:40;54.70;21.50
32187;DHT22;18686;53.084;8.872;2023-06-05T12:11:24;54.70;20.80
32187;DHT22;18686;53.084;8.872;2023-06-05T12:13:53;53.60;21.00
32187;DHT22;18686;53.084;8.872;2023-06-05T12:16:32;54.00;21.10
32187;DHT22;18686;53.084;8.872;2023-06-05T12:19:02;54.40;21.10
32187;DHT22;18686;53.084;8.872;2023-06-05T12:21:41;54.80;21.10
32187;DHT22;18686;53.084;8.872;2023-06-05T12:24:09;55.40;21.70
32187;DHT22;18686;53.084;8.872;2023-06-05T12:26:49;54.90;21.00
32187;DHT22;18686;53.084;8.872;2023-06-05T12:29:22;54.80;21.10
32187;DHT22;18686;53.084;8.872;2023-06-05T12:31:52;54.50;21.30
32187;DHT22;18686;53.084;8.872;2023-06-05T12:34:39;55.00;21.10
32187;DHT22;18686;53.084;8.872;2023-06-05T12:37:11;55.40;20.80
32187;DHT22;18686;53.084;8.872;2023-06-05T12:39:39;55.90;20.60
32187;DHT22;18686;53.084;8.872;2023-06-05T12:42:08;56.60;20.60
32187;DHT22;18686;53.084;8.872;2023-06-05T12:44:36;56.70;20.30
32187;DHT22;18686;53.084;8.872;2023-06-05T12:47:07;57.00;20.40
32187;DHT22;18686;53.084;8.872;2023-06-05T12:49:35;57.20;20.60
32187;DHT22;18686;53.084;8.872;2023-06-05T12:52:06;56.90;20.70
32187;DHT22;18686;53.084;8.872;2023-06-05T12:54:36;56.70;20.30
32187;DHT22;18686;53.084;8.872;2023-06-05T12:57:05;56.50;20.50
32187;DHT22;18686;53.084;8.872;2023-06-05T12:59:38;55.80;20.50
32187;DHT22;18686;53.084;8.872;2023-06-05T13:02:08;56.10;20.80
32187;DHT22;18686;53.084;8.872;2023-06-05T13:04:36;56.20;20.80
32187;DHT22;18686;53.084;8.872;2023-06-05T13:07:05;56.30;20.80
32187;DHT22;18686;53.084;8.872;2023-06-05T13:09:34;56.50;20.70
32187;DHT22;18686;53.084;8.872;2023-06-05T13:12:02;56.00;20.50
32187;DHT22;18686;53.084;8.872;2023-06-05T13:14:31;55.60;20.60
32187;DHT22;18686;53.084;8.872;2023-06-05T13:17:00;55.00;20.60
32187;DHT22;18686;53.084;8.872;2023-06-05T13:19:30;54.40;20.70
32187;DHT22;18686;53.084;8.872;2023-06-05T13:21:58;53.80;21.10
32187;DHT22;18686;53.084;8.872;2023-06-05T13:24:26;52.90;21.10
32187;DHT22;18686;53.084;8.872;2023-06-05T13:26:55;52.40;21.10
32187;DHT22;18686;53.084;8.872;2023-06-05T13:29:24;52.20;21.30
32187;DHT22;18686;53.084;8.872;2023-06-05T13:31:52;52.30;21.20
32187;DHT22;18686;53.084;8.872;2023-06-05T13:34:20;52.00;20.60
32187;DHT22;18686;53.084;8.872;2023-06-05T13:36:50;51.50;20.40
32187;DHT22;18686;53.084;8.872;2023-06-05T13:39:28;49.60;20.60
32187;DHT22;18686;53.084;8.872;2023-06-05T13:41:56;47.90;21.30
32187;DHT22;18686;53.084;8.872;2023-06-05T13:44:25;46.40;21.60
32187;DHT22;18686;53.084;8.872;2023-06-05T13:46:53;45.60;21.80
32187;DHT22;18686;53.084;8.872;2023-06-05T13:49:22;45.30;22.20
32187;DHT22;18686;53.084;8.872;2023-06-05T13:51:52;46.00;22.40
32187;DHT22;18686;53.084;8.872;2023-06-05T13:54:20;47.10;22.20
32187;DHT22;18686;53.084;8.872;2023-06-05T13:56:48;48.50;21.80
32187;DHT22;18686;53.084;8.872;2023-06-05T13:59:18;48.90;21.40
32187;DHT22;18686;53.084;8.872;2023-06-05T14:01:47;47.80;21.70
32187;DHT22;18686;53.084;8.872;2023-06-05T14:04:15;47.30;21.70
32187;DHT22;18686;53.084;8.872;2023-06-05T14:06:44;47.10;21.70
32187;DHT22;18686;53.084;8.872;2023-06-05T14:09:14;47.50;21.60
32187;DHT22;18686;53.084;8.872;2023-06-05T14:11:42;48.30;21.40
32187;DHT22;18686;53.084;8.872;2023-06-05T14:14:12;49.40;21.30
32187;DHT22;18686;53.084;8.872;2023-06-05T14:16:40;50.00;20.80
32187;DHT22;18686;53.084;8.872;2023-06-05T14:19:08;49.60;21.30
32187;DHT22;18686;53.084;8.872;2023-06-05T14:21:36;50.00;21.00
32187;DHT22;18686;53.084;8.872;2023-06-05T14:24:06;49.90;21.00
32187;DHT22;18686;53.084;8.872;2023-06-05T14:26:36;50.20;21.30
32187;DHT22;18686;53.084;8.872;2023-06-05T14:29:04;49.80;21.40
32187;DHT22;18686;53.084;8.872;2023-06-05T14:31:32;48.90;21.50
32187;DHT22;18686;53.084;8.872;2023-06-05T14:34:01;47.90;21.70
32187;DHT22;18686;53.084;8.872;2023-06-05T14:36:29;47.00;21.90
32187;DHT22;18686;53.084;8.872;2023-06-05T14:38:58;46.10;22.30
32187;DHT22;18686;53.084;8.872;2023-06-05T14:41:27;44.70;22.50
32187;DHT22;18686;53.084;8.872;2023-06-05T14:43:57;42.90;23.10
32187;DHT22;18686;53.084;8.872;2023-06-05T14:46:40;40.90;23.60
32187;DHT22;18686;53.084;8.872;2023-06-05T14:49:08;39.00;24.70
32187;DHT22;18686;53.084;8.872;2023-06-05T14:51:38;37.60;25.00
32187;DHT22;18686;53.084;8.872;2023-06-05T14:54:06;36.40;25.30
32187;DHT22;18686;53.084;8.872;2023-06-05T14:56:35;35.50;26.30
32187;DHT22;18686;53.084;8.872;2023-06-05T14:59:04;34.40;27.50
32187;DHT22;18686;53.084;8.872;2023-06-05T15:01:51;33.50;27.90
32187;DHT22;18686;53.084;8.872;2023-06-05T15:04:20;32.40;29.90
32187;DHT22;18686;53.084;8.872;2023-06-05T15:06:48;31.60;32.30
32187;DHT22;18686;53.084;8.872;2023-06-05T15:09:18;30.80;34.50
32187;DHT22;18686;53.084;8.872;2023-06-05T15:11:46;30.10;37.00
32187;DHT22;18686;53.084;8.872;2023-06-05T15:14:16;29.70;37.70
32187;DHT22;18686;53.084;8.872;2023-06-05T15:16:44;29.20;37.60
32187;DHT22;18686;53.084;8.872;2023-06-05T15:19:13;28.80;39.20
32187;DHT22;18686;53.084;8.872;2023-06-05T15:21:41;28.30;39.80
32187;DHT22;18686;53.084;8.872;2023-06-05T15:24:10;28.00;40.90
32187;DHT22;18686;53.084;8.872;2023-06-05T15:26:38;27.60;41.30
32187;DHT22;18686;53.084;8.872;2023-06-05T15:29:06;27.30;42.60
32187;DHT22;18686;53.084;8.872;2023-06-05T15:31:36;27.00;43.00
32187;DHT22;18686;53.084;8.872;2023-06-05T15:34:04;26.80;43.90
32187;DHT22;18686;53.084;8.872;2023-06-05T15:36:32;26.40;45.50
32187;DHT22;18686;53.084;8.872;2023-06-05T15:39:01;26.10;46.70
32187;DHT22;18686;53.084;8.872;2023-06-05T15:41:29;25.80;47.20
32187;DHT22;18686;53.084;8.872;2023-06-05T15:43:58;25.60;48.00
32187;DHT22;18686;53.084;8.872;2023-06-05T15:46:26;25.20;48.20
32187;DHT22;18686;53.084;8.872;2023-06-05T15:48:56;25.00;48.80
32187;DHT22;18686;53.084;8.872;2023-06-05T15:51:24;24.70;49.80
32187;DHT22;18686;53.084;8.872;2023-06-05T15:53:54;24.40;50.90
32187;DHT22;18686;53.084;8.872;2023-06-05T15:56:45;24.30;51.90